sensor_id;sensor_type;location;lat;lon;timestamp;pressure;altitude;pressure_sealevel;temperature;humidity
50854;BME280;44154;45.506;-122.806;2023-04-24T00:01:03;100597.53;;;25.21;39.94
50854;BME280;44154;45.506;-122.806;2023-04-24T00:03:32;100589.06;;;25.28;39.44
50854;BME280;44154;45.506;-122.806;2023-04-24T00:05:59;100594.88;;;25.32;38.87
50854;BME280;44154;45.506;-122.806;2023-04-24T00:08:26;100604.16;;;25.31;39.01
50854;BME280;44154;45.506;-122.806;2023-04-24T00:10:52;100597.47;;;25.11;39.23
50854;BME280;44154;45.506;-122.806;2023-04-24T00:13:18;100597.16;;;25.02;39.66
50854;BME280;44154;45.506;-122.806;2023-04-24T00:15:45;100589.78;;;25.08;38.93
50854;BME280;44154;45.506;-122.806;2023-04-24T00:18:11;100596.34;;;25.07;38.88
50854;BME280;44154;45.506;-122.806;2023-04-24T00:20:37;100597.16;;;25.02;39.08
50854;BME280;44154;45.506;-122.806;2023-04-24T00:23:03;100569.22;;;24.68;39.73
50854;BME280;44154;45.506;-122.806;2023-04-24T00:25:29;100590.00;;;24.69;39.63
50854;BME280;44154;45.506;-122.806;2023-04-24T00:27:55;100596.81;;;24.61;39.96
50854;BME280;44154;45.506;-122.806;2023-04-24T00:30:21;100596.28;;;24.64;40.08
50854;BME280;44154;45.506;-122.806;2023-04-24T00:32:48;100599.97;;;24.53;39.33
50854;BME280;44154;45.506;-122.806;2023-04-24T00:35:14;100596.09;;;24.49;39.84
50854;BME280;44154;45.506;-122.806;2023-04-24T00:37:40;100593.59;;;24.42;39.95
50854;BME280;44154;45.506;-122.806;2023-04-24T00:40:07;100605.31;;;24.37;40.10
50854;BME280;44154;45.506;-122.806;2023-04-24T00:42:34;100613.75;;;24.36;40.25
50854;BME280;44154;45.506;-122.806;2023-04-24T00:45:00;100610.00;;;24.42;40.27
50854;BME280;44154;45.506;-122.806;2023-04-24T00:47:28;100603.09;;;24.62;39.66
50854;BME280;44154;45.506;-122.806;2023-04-24T00:49:55;100608.22;;;24.85;38.83
50854;BME280;44154;45.506;-122.806;2023-04-24T00:52:21;100607.97;;;24.87;38.62
50854;BME280;44154;45.506;-122.806;2023-04-24T00:54:50;100589.03;;;24.80;37.83
50854;BME280;44154;45.506;-122.806;2023-04-24T00:57:16;100597.22;;;24.80;38.08
50854;BME280;44154;45.506;-122.806;2023-04-24T00:59:43;100599.97;;;24.80;38.07
50854;BME280;44154;45.506;-122.806;2023-04-24T01:02:10;100594.72;;;24.73;37.91
50854;BME280;44154;45.506;-122.806;2023-04-24T01:04:37;100578.34;;;24.51;38.07
50854;BME280;44154;45.506;-122.806;2023-04-24T01:07:04;100586.63;;;24.56;38.79
50854;BME280;44154;45.506;-122.806;2023-04-24T01:09:38;100584.59;;;24.74;38.76
50854;BME280;44154;45.506;-122.806;2023-04-24T01:12:06;100559.50;;;24.82;38.35
50854;BME280;44154;45.506;-122.806;2023-04-24T01:14:33;100560.75;;;25.12;37.64
50854;BME280;44154;45.506;-122.806;2023-04-24T01:16:59;100574.00;;;25.25;37.13
50854;BME280;44154;45.506;-122.806;2023-04-24T01:19:26;100568.53;;;25.25;36.71
50854;BME280;44154;45.506;-122.806;2023-04-24T01:21:53;100566.56;;;25.16;37.14
50854;BME280;44154;45.506;-122.806;2023-04-24T01:24:22;100570.09;;;25.16;36.98
50854;BME280;44154;45.506;-122.806;2023-04-24T01:26:49;100578.03;;;25.13;37.44
50854;BME280;44154;45.506;-122.806;2023-04-24T01:29:15;100580.13;;;25.00;37.23
50854;BME280;44154;45.506;-122.806;2023-04-24T01:31:42;100581.53;;;25.03;36.71
50854;BME280;44154;45.506;-122.806;2023-04-24T01:34:09;100562.31;;;24.98;37.07
50854;BME280;44154;45.506;-122.806;2023-04-24T01:36:35;100576.28;;;24.96;36.42
50854;BME280;44154;45.506;-122.806;2023-04-24T01:39:02;100580.63;;;24.92;37.45
50854;BME280;44154;45.506;-122.806;2023-04-24T01:41:29;100574.53;;;24.85;37.79
50854;BME280;44154;45.506;-122.806;2023-04-24T01:43:57;100572.66;;;24.90;37.99
50854;BME280;44154;45.506;-122.806;2023-04-24T01:46:24;100580.28;;;24.83;37.96
50854;BME280;44154;45.506;-122.806;2023-04-24T01:48:51;100562.66;;;24.69;38.35
50854;BME280;44154;45.506;-122.806;2023-04-24T01:51:18;100574.47;;;24.74;38.41
50854;BME280;44154;45.506;-122.806;2023-04-24T01:53:44;100565.63;;;24.62;38.47
50854;BME280;44154;45.506;-122.806;2023-04-24T01:56:11;100561.94;;;24.51;38.60
50854;BME280;44154;45.506;-122.806;2023-04-24T01:58:37;100559.09;;;24.41;38.74
50854;BME280;44154;45.506;-122.806;2023-04-24T02:01:03;100561.78;;;24.36;38.85
50854;BME280;44154;45.506;-122.806;2023-04-24T02:03:29;100556.94;;;24.43;38.98
50854;BME280;44154;45.506;-122.806;2023-04-24T02:05:56;100552.38;;;24.54;38.79
50854;BME280;44154;45.506;-122.806;2023-04-24T02:08:22;100548.31;;;24.56;39.34
50854;BME280;44154;45.506;-122.806;2023-04-24T02:10:48;100561.03;;;24.68;39.54
50854;BME280;44154;45.506;-122.806;2023-04-24T02:13:14;100556.16;;;24.75;39.42
50854;BME280;44154;45.506;-122.806;2023-04-24T02:15:40;100545.28;;;24.85;39.60
50854;BME280;44154;45.506;-122.806;2023-04-24T02:19:58;100560.09;;;24.89;39.51
50854;BME280;44154;45.506;-122.806;2023-04-24T02:22:24;100561.50;;;24.97;39.59
50854;BME280;44154;45.506;-122.806;2023-04-24T02:24:50;100556.56;;;24.99;40.03
50854;BME280;44154;45.506;-122.806;2023-04-24T02:27:16;100567.25;;;24.96;40.28
50854;BME280;44154;45.506;-122.806;2023-04-24T02:29:42;100569.97;;;24.96;40.42
50854;BME280;44154;45.506;-122.806;2023-04-24T02:32:08;100549.13;;;24.89;40.61
50854;BME280;44154;45.506;-122.806;2023-04-24T02:34:37;100569.50;;;25.09;41.15
50854;BME280;44154;45.506;-122.806;2023-04-24T02:37:04;100571.16;;;25.10;41.39
50854;BME280;44154;45.506;-122.806;2023-04-24T02:39:30;100576.66;;;25.10;41.79
50854;BME280;44154;45.506;-122.806;2023-04-24T02:41:56;100570.38;;;25.15;42.17
50854;BME280;44154;45.506;-122.806;2023-04-24T02:44:22;100565.69;;;25.10;42.20
50854;BME280;44154;45.506;-122.806;2023-04-24T02:46:49;100556.69;;;25.15;41.24
50854;BME280;44154;45.506;-122.806;2023-04-24T02:49:15;100562.69;;;25.11;42.20
50854;BME280;44154;45.506;-122.806;2023-04-24T02:51:41;100518.44;;;24.87;42.56
50854;BME280;44154;45.506;-122.806;2023-04-24T02:54:08;100553.13;;;25.19;42.56
50854;BME280;44154;45.506;-122.806;2023-04-24T02:56:35;100562.00;;;25.32;42.16
50854;BME280;44154;45.506;-122.806;2023-04-24T02:59:02;100494.31;;;24.79;41.61
50854;BME280;44154;45.506;-122.806;2023-04-24T03:01:28;100557.00;;;25.18;41.85
50854;BME280;44154;45.506;-122.806;2023-04-24T03:03:54;100561.63;;;25.18;41.60
50854;BME280;44154;45.506;-122.806;2023-04-24T03:06:21;100555.88;;;25.14;41.24
50854;BME280;44154;45.506;-122.806;2023-04-24T03:08:47;100544.81;;;24.99;41.46
50854;BME280;44154;45.506;-122.806;2023-04-24T03:11:13;100549.47;;;25.03;41.17
50854;BME280;44154;45.506;-122.806;2023-04-24T03:13:39;100483.16;;;24.53;40.82
50854;BME280;44154;45.506;-122.806;2023-04-24T03:16:06;100564.56;;;25.06;40.50
50854;BME280;44154;45.506;-122.806;2023-04-24T03:18:32;100567.56;;;25.04;40.67
50854;BME280;44154;45.506;-122.806;2023-04-24T03:20:58;100565.38;;;25.06;41.24
50854;BME280;44154;45.506;-122.806;2023-04-24T03:23:25;100560.75;;;25.07;40.85
50854;BME280;44154;45.506;-122.806;2023-04-24T03:25:51;100555.28;;;25.07;40.59
50854;BME280;44154;45.506;-122.806;2023-04-24T03:28:17;100557.38;;;24.94;41.27
50854;BME280;44154;45.506;-122.806;2023-04-24T03:30:43;100567.50;;;24.94;41.41
50854;BME280;44154;45.506;-122.806;2023-04-24T03:33:09;100558.97;;;24.90;41.03
50854;BME280;44154;45.506;-122.806;2023-04-24T03:35:36;100570.63;;;25.08;40.96
50854;BME280;44154;45.506;-122.806;2023-04-24T03:38:02;100569.06;;;25.22;40.34
50854;BME280;44154;45.506;-122.806;2023-04-24T03:40:30;100575.91;;;25.25;39.95
50854;BME280;44154;45.506;-122.806;2023-04-24T03:42:56;100564.41;;;25.23;40.08
50854;BME280;44154;45.506;-122.806;2023-04-24T03:45:22;100572.34;;;25.24;39.73
50854;BME280;44154;45.506;-122.806;2023-04-24T03:47:49;100574.28;;;25.24;39.91
50854;BME280;44154;45.506;-122.806;2023-04-24T03:50:16;100576.69;;;25.15;40.03
50854;BME280;44154;45.506;-122.806;2023-04-24T03:52:42;100583.53;;;25.18;39.69
50854;BME280;44154;45.506;-122.806;2023-04-24T03:55:08;100572.81;;;25.11;39.66
50854;BME280;44154;45.506;-122.806;2023-04-24T03:57:34;100577.19;;;25.07;39.52
50854;BME280;44154;45.506;-122.806;2023-04-24T04:00:00;100582.13;;;25.10;39.88
50854;BME280;44154;45.506;-122.806;2023-04-24T04:02:27;100583.69;;;25.01;40.19
50854;BME280;44154;45.506;-122.806;2023-04-24T04:04:53;100587.53;;;25.00;39.75
50854;BME280;44154;45.506;-122.806;2023-04-24T04:07:20;100580.94;;;24.96;40.27
50854;BME280;44154;45.506;-122.806;2023-04-24T04:09:46;100583.06;;;24.88;39.68
50854;BME280;44154;45.506;-122.806;2023-04-24T04:12:12;100596.81;;;24.99;39.91
50854;BME280;44154;45.506;-122.806;2023-04-24T04:14:38;100599.81;;;24.97;39.92
50854;BME280;44154;45.506;-122.806;2023-04-24T04:17:04;100597.09;;;24.97;40.15
50854;BME280;44154;45.506;-122.806;2023-04-24T04:19:31;100605.31;;;24.97;39.85
50854;BME280;44154;45.506;-122.806;2023-04-24T04:21:57;100578.38;;;24.84;40.28
50854;BME280;44154;45.506;-122.806;2023-04-24T04:24:23;100603.66;;;24.96;39.94
50854;BME280;44154;45.506;-122.806;2023-04-24T04:26:50;100603.66;;;24.96;39.98
50854;BME280;44154;45.506;-122.806;2023-04-24T04:29:17;100600.91;;;24.96;39.83
50854;BME280;44154;45.506;-122.806;2023-04-24T04:31:46;100601.75;;;24.97;40.00
50854;BME280;44154;45.506;-122.806;2023-04-24T04:34:12;100600.91;;;24.96;39.80
50854;BME280;44154;45.506;-122.806;2023-04-24T04:36:40;100590.47;;;24.88;39.50
50854;BME280;44154;45.506;-122.806;2023-04-24T04:39:07;100592.34;;;24.82;40.49
50854;BME280;44154;45.506;-122.806;2023-04-24T04:41:33;100607.03;;;24.76;40.70
50854;BME280;44154;45.506;-122.806;2023-04-24T04:44:01;100594.56;;;24.90;40.44
50854;BME280;44154;45.506;-122.806;2023-04-24T04:46:30;100606.81;;;25.15;39.54
50854;BME280;44154;45.506;-122.806;2023-04-24T04:49:02;100586.53;;;25.11;39.20
50854;BME280;44154;45.506;-122.806;2023-04-24T04:51:29;100612.88;;;25.22;38.98
50854;BME280;44154;45.506;-122.806;2023-04-24T04:53:55;100594.19;;;25.14;39.21
50854;BME280;44154;45.506;-122.806;2023-04-24T04:56:21;100592.53;;;25.13;39.18
50854;BME280;44154;45.506;-122.806;2023-04-24T04:58:48;100604.03;;;25.10;39.45
50854;BME280;44154;45.506;-122.806;2023-04-24T05:01:14;100445.53;;;24.01;39.70
50854;BME280;44154;45.506;-122.806;2023-04-24T05:03:41;100605.09;;;25.04;39.59
50854;BME280;44154;45.506;-122.806;2023-04-24T05:06:07;100619.91;;;25.08;39.38
50854;BME280;44154;45.506;-122.806;2023-04-24T05:08:33;100616.06;;;25.09;39.00
50854;BME280;44154;45.506;-122.806;2023-04-24T05:10:59;100615.19;;;25.03;38.77
50854;BME280;44154;45.506;-122.806;2023-04-24T05:13:26;100627.84;;;25.09;38.99
50854;BME280;44154;45.506;-122.806;2023-04-24T05:15:52;100623.72;;;25.07;38.68
50854;BME280;44154;45.506;-122.806;2023-04-24T05:18:18;100625.63;;;25.06;39.21
50854;BME280;44154;45.506;-122.806;2023-04-24T05:20:44;100629.41;;;24.95;40.31
50854;BME280;44154;45.506;-122.806;2023-04-24T05:23:10;100618.66;;;24.88;40.39
50854;BME280;44154;45.506;-122.806;2023-04-24T05:25:37;100625.22;;;24.87;40.07
50854;BME280;44154;45.506;-122.806;2023-04-24T05:28:05;100633.16;;;24.89;39.74
50854;BME280;44154;45.506;-122.806;2023-04-24T05:30:32;100642.50;;;24.93;39.22
50854;BME280;44154;45.506;-122.806;2023-04-24T05:32:58;100636.75;;;24.94;39.79
50854;BME280;44154;45.506;-122.806;2023-04-24T05:35:24;100638.97;;;24.98;40.69
50854;BME280;44154;45.506;-122.806;2023-04-24T05:37:50;100629.63;;;24.93;40.79
50854;BME280;44154;45.506;-122.806;2023-04-24T05:40:16;100623.31;;;24.88;40.14
50854;BME280;44154;45.506;-122.806;2023-04-24T05:42:43;100634.09;;;25.00;40.48
50854;BME280;44154;45.506;-122.806;2023-04-24T05:45:09;100630.75;;;24.98;40.58
50854;BME280;44154;45.506;-122.806;2023-04-24T05:47:40;100631.56;;;24.93;40.46
50854;BME280;44154;45.506;-122.806;2023-04-24T05:50:06;100635.09;;;24.88;40.45
50854;BME280;44154;45.506;-122.806;2023-04-24T05:52:33;100635.38;;;24.92;40.73
50854;BME280;44154;45.506;-122.806;2023-04-24T05:54:59;100624.69;;;24.90;40.59
50854;BME280;44154;45.506;-122.806;2023-04-24T05:57:25;100632.91;;;24.90;40.82
50854;BME280;44154;45.506;-122.806;2023-04-24T05:59:51;100617.78;;;24.83;40.78
50854;BME280;44154;45.506;-122.806;2023-04-24T06:02:17;100617.53;;;24.84;40.49
50854;BME280;44154;45.506;-122.806;2023-04-24T06:04:44;100627.41;;;24.85;39.78
50854;BME280;44154;45.506;-122.806;2023-04-24T06:07:11;100623.53;;;24.81;42.59
50854;BME280;44154;45.506;-122.806;2023-04-24T06:09:37;100629.06;;;24.91;42.57
50854;BME280;44154;45.506;-122.806;2023-04-24T06:12:04;100625.63;;;25.06;42.24
50854;BME280;44154;45.506;-122.806;2023-04-24T06:14:30;100627.13;;;25.24;42.52
50854;BME280;44154;45.506;-122.806;2023-04-24T06:16:56;100629.41;;;25.33;42.80
50854;BME280;44154;45.506;-122.806;2023-04-24T06:19:22;100623.94;;;25.33;42.34
50854;BME280;44154;45.506;-122.806;2023-04-24T06:21:48;100640.03;;;25.29;41.42
50854;BME280;44154;45.506;-122.806;2023-04-24T06:24:15;100633.41;;;25.25;41.46
50854;BME280;44154;45.506;-122.806;2023-04-24T06:26:44;100636.16;;;25.20;42.45
50854;BME280;44154;45.506;-122.806;2023-04-24T06:29:10;100636.69;;;25.17;42.86
50854;BME280;44154;45.506;-122.806;2023-04-24T06:31:36;100632.47;;;25.04;44.73
50854;BME280;44154;45.506;-122.806;2023-04-24T06:34:03;100634.63;;;25.02;44.85
50854;BME280;44154;45.506;-122.806;2023-04-24T06:36:30;100638.41;;;24.96;44.30
50854;BME280;44154;45.506;-122.806;2023-04-24T06:38:56;100643.09;;;24.95;42.57
50854;BME280;44154;45.506;-122.806;2023-04-24T06:41:23;100635.63;;;24.90;42.09
50854;BME280;44154;45.506;-122.806;2023-04-24T06:43:49;100641.44;;;24.94;41.51
50854;BME280;44154;45.506;-122.806;2023-04-24T06:46:15;100647.44;;;24.91;41.54
50854;BME280;44154;45.506;-122.806;2023-04-24T06:48:41;100651.25;;;24.90;41.29
50854;BME280;44154;45.506;-122.806;2023-04-24T06:51:08;100602.72;;;24.53;41.32
50854;BME280;44154;45.506;-122.806;2023-04-24T06:53:34;100663.28;;;24.89;41.60
50854;BME280;44154;45.506;-122.806;2023-04-24T06:56:00;100641.00;;;24.75;42.16
50854;BME280;44154;45.506;-122.806;2023-04-24T06:58:27;100674.72;;;24.81;42.53
50854;BME280;44154;45.506;-122.806;2023-04-24T07:00:53;100669.44;;;24.74;43.04
50854;BME280;44154;45.506;-122.806;2023-04-24T07:03:19;100676.06;;;24.78;43.52
50854;BME280;44154;45.506;-122.806;2023-04-24T07:05:45;100659.22;;;24.64;44.56
50854;BME280;44154;45.506;-122.806;2023-04-24T07:08:12;100671.03;;;24.70;43.96
50854;BME280;44154;45.506;-122.806;2023-04-24T07:10:38;100687.56;;;24.80;42.97
50854;BME280;44154;45.506;-122.806;2023-04-24T07:13:04;100684.00;;;24.80;43.40
50854;BME280;44154;45.506;-122.806;2023-04-24T07:15:32;100688.84;;;25.00;42.18
50854;BME280;44154;45.506;-122.806;2023-04-24T07:17:58;100684.59;;;25.19;41.72
50854;BME280;44154;45.506;-122.806;2023-04-24T07:20:25;100674.22;;;25.21;41.24
50854;BME280;44154;45.506;-122.806;2023-04-24T07:22:51;100690.69;;;25.26;41.10
50854;BME280;44154;45.506;-122.806;2023-04-24T07:25:19;100675.03;;;25.22;41.18
50854;BME280;44154;45.506;-122.806;2023-04-24T07:27:45;100682.44;;;25.21;40.94
50854;BME280;44154;45.506;-122.806;2023-04-24T07:30:12;100665.31;;;25.04;41.53
50854;BME280;44154;45.506;-122.806;2023-04-24T07:32:38;100689.47;;;25.12;40.93
50854;BME280;44154;45.506;-122.806;2023-04-24T07:35:05;100668.81;;;24.99;41.45
50854;BME280;44154;45.506;-122.806;2023-04-24T07:37:31;100680.91;;;25.03;41.44
50854;BME280;44154;45.506;-122.806;2023-04-24T07:39:57;100676.44;;;24.92;41.73
50854;BME280;44154;45.506;-122.806;2023-04-24T07:42:23;100701.19;;;25.02;41.62
50854;BME280;44154;45.506;-122.806;2023-04-24T07:44:50;100698.91;;;24.94;41.29
50854;BME280;44154;45.506;-122.806;2023-04-24T07:47:16;100683.75;;;24.81;41.56
50854;BME280;44154;45.506;-122.806;2023-04-24T07:49:43;100695.81;;;24.85;41.35
50854;BME280;44154;45.506;-122.806;2023-04-24T07:52:09;100697.97;;;24.83;41.17
50854;BME280;44154;45.506;-122.806;2023-04-24T07:54:35;100683.03;;;24.64;40.34
50854;BME280;44154;45.506;-122.806;2023-04-24T07:57:03;100703.41;;;24.78;41.60
50854;BME280;44154;45.506;-122.806;2023-04-24T07:59:30;100690.97;;;24.65;41.10
50854;BME280;44154;45.506;-122.806;2023-04-24T08:01:56;100716.25;;;24.77;41.12
50854;BME280;44154;45.506;-122.806;2023-04-24T08:04:22;100691.16;;;24.58;40.90
50854;BME280;44154;45.506;-122.806;2023-04-24T08:06:48;100706.88;;;24.68;40.91
50854;BME280;44154;45.506;-122.806;2023-04-24T08:09:15;100717.22;;;24.88;40.41
50854;BME280;44154;45.506;-122.806;2023-04-24T08:11:41;100701.84;;;24.87;41.11
50854;BME280;44154;45.506;-122.806;2023-04-24T08:14:07;100717.91;;;25.06;40.83
50854;BME280;44154;45.506;-122.806;2023-04-24T08:16:33;100731.75;;;25.21;40.80
50854;BME280;44154;45.506;-122.806;2023-04-24T08:18:59;100724.19;;;25.34;40.37
50854;BME280;44154;45.506;-122.806;2023-04-24T08:21:26;100722.31;;;25.39;39.95
50854;BME280;44154;45.506;-122.806;2023-04-24T08:23:52;100727.78;;;25.39;40.02
50854;BME280;44154;45.506;-122.806;2023-04-24T08:26:19;100730.41;;;25.24;40.72
50854;BME280;44154;45.506;-122.806;2023-04-24T08:28:45;100700.81;;;24.93;40.92
50854;BME280;44154;45.506;-122.806;2023-04-24T08:31:11;100731.66;;;25.11;40.84
50854;BME280;44154;45.506;-122.806;2023-04-24T08:33:37;100735.38;;;25.00;40.61
50854;BME280;44154;45.506;-122.806;2023-04-24T08:36:05;100724.34;;;24.89;40.95
50854;BME280;44154;45.506;-122.806;2023-04-24T08:38:32;100711.06;;;24.76;40.68
50854;BME280;44154;45.506;-122.806;2023-04-24T08:41:00;100733.91;;;24.87;40.78
50854;BME280;44154;45.506;-122.806;2023-04-24T08:43:27;100723.97;;;24.81;40.54
50854;BME280;44154;45.506;-122.806;2023-04-24T08:45:55;100730.22;;;24.76;40.76
50854;BME280;44154;45.506;-122.806;2023-04-24T08:48:22;100734.09;;;24.80;40.89
50854;BME280;44154;45.506;-122.806;2023-04-24T08:50:50;100731.34;;;24.80;40.67
50854;BME280;44154;45.506;-122.806;2023-04-24T08:53:18;100732.38;;;24.74;40.68
50854;BME280;44154;45.506;-122.806;2023-04-24T08:55:47;100732.06;;;24.70;40.83
50854;BME280;44154;45.506;-122.806;2023-04-24T08:58:15;100740.44;;;24.86;40.50
50854;BME280;44154;45.506;-122.806;2023-04-24T09:00:42;100741.38;;;24.97;41.42
50854;BME280;44154;45.506;-122.806;2023-04-24T09:03:15;100734.06;;;25.07;41.23
50854;BME280;44154;45.506;-122.806;2023-04-24T09:05:47;100726.78;;;25.18;40.33
50854;BME280;44154;45.506;-122.806;2023-04-24T09:08:17;100745.56;;;25.32;40.11
50854;BME280;44154;45.506;-122.806;2023-04-24T09:10:44;100720.72;;;25.11;39.92
50854;BME280;44154;45.506;-122.806;2023-04-24T09:13:11;100737.75;;;25.18;40.42
50854;BME280;44154;45.506;-122.806;2023-04-24T09:15:38;100747.56;;;25.14;40.23
50854;BME280;44154;45.506;-122.806;2023-04-24T09:18:05;100751.34;;;25.08;40.29
50854;BME280;44154;45.506;-122.806;2023-04-24T09:20:32;100751.28;;;25.03;40.25
50854;BME280;44154;45.506;-122.806;2023-04-24T09:22:58;100742.13;;;24.92;40.22
50854;BME280;44154;45.506;-122.806;2023-04-24T09:25:31;100739.63;;;24.85;40.19
50854;BME280;44154;45.506;-122.806;2023-04-24T09:28:03;100746.19;;;24.84;40.50
50854;BME280;44154;45.506;-122.806;2023-04-24T09:30:29;100752.72;;;24.83;40.71
50854;BME280;44154;45.506;-122.806;2023-04-24T09:33:15;100755.09;;;24.74;40.73
50854;BME280;44154;45.506;-122.806;2023-04-24T09:35:42;100763.53;;;24.68;40.74
50854;BME280;44154;45.506;-122.806;2023-04-24T09:38:09;100765.63;;;24.61;40.50
50854;BME280;44154;45.506;-122.806;2023-04-24T09:40:36;100765.03;;;24.58;40.83
50854;BME280;44154;45.506;-122.806;2023-04-24T09:43:02;100755.09;;;24.74;40.84
50854;BME280;44154;45.506;-122.806;2023-04-24T09:45:35;100756.69;;;24.98;40.62
50854;BME280;44154;45.506;-122.806;2023-04-24T09:48:02;100759.66;;;25.18;40.67
50854;BME280;44154;45.506;-122.806;2023-04-24T09:50:30;100750.59;;;25.18;40.49
50854;BME280;44154;45.506;-122.806;2023-04-24T09:53:06;100765.47;;;25.27;40.24
50854;BME280;44154;45.506;-122.806;2023-04-24T09:55:44;100749.97;;;25.10;39.94
50854;BME280;44154;45.506;-122.806;2023-04-24T09:58:11;100742.50;;;25.01;40.00
50854;BME280;44154;45.506;-122.806;2023-04-24T10:00:38;100755.38;;;25.00;40.08
50854;BME280;44154;45.506;-122.806;2023-04-24T10:03:05;100766.50;;;24.93;40.38
50854;BME280;44154;45.506;-122.806;2023-04-24T10:05:35;100764.53;;;24.84;40.22
50854;BME280;44154;45.506;-122.806;2023-04-24T10:08:07;100772.84;;;24.72;40.68
50854;BME280;44154;45.506;-122.806;2023-04-24T10:10:38;100778.81;;;24.64;40.66
50854;BME280;44154;45.506;-122.806;2023-04-24T10:13:04;100771.28;;;24.54;40.52
50854;BME280;44154;45.506;-122.806;2023-04-24T10:15:32;100793.16;;;24.54;40.25
50854;BME280;44154;45.506;-122.806;2023-04-24T10:17:58;100785.50;;;24.56;40.24
50854;BME280;44154;45.506;-122.806;2023-04-24T10:20:27;100781.88;;;24.50;40.19
50854;BME280;44154;45.506;-122.806;2023-04-24T10:22:58;100789.78;;;24.47;42.00
50854;BME280;44154;45.506;-122.806;2023-04-24T10:25:30;100795.97;;;24.59;41.94
50854;BME280;44154;45.506;-122.806;2023-04-24T10:27:57;100789.41;;;24.82;40.99
50854;BME280;44154;45.506;-122.806;2023-04-24T10:30:27;100803.00;;;24.99;39.96
50854;BME280;44154;45.506;-122.806;2023-04-24T10:32:54;100793.97;;;24.99;39.63
50854;BME280;44154;45.506;-122.806;2023-04-24T10:35:22;100802.94;;;24.94;39.60
50854;BME280;44154;45.506;-122.806;2023-04-24T10:38:21;100798.38;;;25.00;39.54
50854;BME280;44154;45.506;-122.806;2023-04-24T10:40:44;100803.50;;;24.96;39.43
50854;BME280;44154;45.506;-122.806;2023-04-24T10:43:10;100802.09;;;24.93;39.66
50854;BME280;44154;45.506;-122.806;2023-04-24T10:46:03;100804.03;;;24.93;39.74
50854;BME280;44154;45.506;-122.806;2023-04-24T10:48:31;100802.06;;;24.88;39.84
50854;BME280;44154;45.506;-122.806;2023-04-24T10:50:58;100805.31;;;24.85;40.00
50854;BME280;44154;45.506;-122.806;2023-04-24T10:53:28;100810.47;;;24.82;40.03
50854;BME280;44154;45.506;-122.806;2023-04-24T10:56:09;100775.66;;;24.55;40.38
50854;BME280;44154;45.506;-122.806;2023-04-24T10:58:43;100807.06;;;24.69;40.27
50854;BME280;44154;45.506;-122.806;2023-04-24T11:01:26;100806.72;;;24.66;40.24
50854;BME280;44154;45.506;-122.806;2023-04-24T11:04:01;100814.06;;;24.60;40.45
50854;BME280;44154;45.506;-122.806;2023-04-24T11:06:30;100815.53;;;24.68;42.24
50854;BME280;44154;45.506;-122.806;2023-04-24T11:09:15;100817.28;;;24.79;43.38
50854;BME280;44154;45.506;-122.806;2023-04-24T11:11:46;100820.25;;;25.00;42.31
50854;BME280;44154;45.506;-122.806;2023-04-24T11:14:16;100821.25;;;25.16;43.79
50854;BME280;44154;45.506;-122.806;2023-04-24T11:16:51;100825.94;;;25.20;43.28
50854;BME280;44154;45.506;-122.806;2023-04-24T11:19:23;100836.34;;;25.18;42.31
50854;BME280;44154;45.506;-122.806;2023-04-24T11:27:09;100840.50;;;24.99;43.90
50854;BME280;44154;45.506;-122.806;2023-04-24T11:29:41;100845.34;;;24.91;43.50
50854;BME280;44154;45.506;-122.806;2023-04-24T11:32:40;100843.06;;;24.83;42.10
50854;BME280;44154;45.506;-122.806;2023-04-24T11:35:18;100849.31;;;24.79;41.30
50854;BME280;44154;45.506;-122.806;2023-04-24T11:37:47;100847.91;;;24.76;41.14
50854;BME280;44154;45.506;-122.806;2023-04-24T11:40:16;100843.38;;;24.65;40.84
50854;BME280;44154;45.506;-122.806;2023-04-24T11:42:47;100857.91;;;24.65;40.83
50854;BME280;44154;45.506;-122.806;2023-04-24T11:45:16;100862.78;;;24.63;40.77
50854;BME280;44154;45.506;-122.806;2023-04-24T11:47:43;100867.28;;;24.69;42.80
50854;BME280;44154;45.506;-122.806;2023-04-24T11:50:15;100865.28;;;24.87;42.62
50854;BME280;44154;45.506;-122.806;2023-04-24T11:52:43;100864.63;;;25.02;41.66
50854;BME280;44154;45.506;-122.806;2023-04-24T11:57:54;100875.84;;;25.22;41.47
50854;BME280;44154;45.506;-122.806;2023-04-24T12:00:23;100884.28;;;25.21;41.45
50854;BME280;44154;45.506;-122.806;2023-04-24T12:02:50;100873.09;;;25.00;42.00
50854;BME280;44154;45.506;-122.806;2023-04-24T12:05:27;100884.06;;;25.00;41.93
50854;BME280;44154;45.506;-122.806;2023-04-24T12:07:53;100894.13;;;24.94;42.16
50854;BME280;44154;45.506;-122.806;2023-04-24T12:10:21;100886.94;;;24.88;42.04
50854;BME280;44154;45.506;-122.806;2023-04-24T12:12:48;100891.00;;;24.86;42.47
50854;BME280;44154;45.506;-122.806;2023-04-24T12:15:18;100871.09;;;24.68;42.43
50854;BME280;44154;45.506;-122.806;2023-04-24T12:17:45;100892.53;;;24.76;42.53
50854;BME280;44154;45.506;-122.806;2023-04-24T12:20:12;100889.91;;;24.65;42.12
50854;BME280;44154;45.506;-122.806;2023-04-24T12:22:55;100892.91;;;24.63;42.53
50854;BME280;44154;45.506;-122.806;2023-04-24T12:25:25;100903.38;;;24.66;42.72
50854;BME280;44154;45.506;-122.806;2023-04-24T12:28:08;100907.94;;;24.61;41.97
50854;BME280;44154;45.506;-122.806;2023-04-24T12:30:47;100912.00;;;24.80;42.23
50854;BME280;44154;45.506;-122.806;2023-04-24T12:33:21;100913.28;;;24.94;41.69